createdAt,value
2023-02-13T00:01:23.722Z,12.60
2023-02-13T00:05:24.331Z,11.80
2023-02-13T00:09:30.491Z,11.80
2023-02-13T00:12:59.673Z,12.27
2023-02-13T00:16:57.481Z,11.73
2023-02-13T00:20:53.593Z,11.57
2023-02-13T00:24:46.717Z,11.50
2023-02-13T00:28:46.826Z,12.20
2023-02-13T00:32:35.885Z,10.53
2023-02-13T00:36:34.677Z,10.70
2023-02-13T00:40:28.522Z,11.23
2023-02-13T00:44:31.566Z,11.70
2023-02-13T00:47:51.532Z,12.30
2023-02-13T00:52:06.508Z,12.17
2023-02-13T00:56:12.177Z,10.23
2023-02-13T00:59:57.579Z,11.63
2023-02-13T01:03:44.957Z,11.33
2023-02-13T01:07:44.928Z,13.30
2023-02-13T01:11:47.145Z,13.63
2023-02-13T01:16:01.311Z,12.50
2023-02-13T01:19:58.441Z,13.30
2023-02-13T01:23:10.092Z,11.97
2023-02-13T01:26:20.464Z,13.73
2023-02-13T01:29:24.148Z,12.93
2023-02-13T01:32:28.275Z,12.50
2023-02-13T01:35:32.089Z,11.93
2023-02-13T01:38:35.953Z,11.83
2023-02-13T01:41:41.344Z,12.07
2023-02-13T01:44:53.695Z,13.20
2023-02-13T01:48:05.861Z,12.93
2023-02-13T01:51:14.559Z,11.77
2023-02-13T01:54:22.903Z,12.10
2023-02-13T01:57:35.009Z,11.63
2023-02-13T02:00:40.153Z,12.00
2023-02-13T02:03:50.678Z,12.93
2023-02-13T02:06:59.542Z,11.60
2023-02-13T02:10:09.717Z,11.83
2023-02-13T02:13:18.667Z,12.03
2023-02-13T02:16:22.522Z,12.03
2023-02-13T02:19:43.192Z,12.03
2023-02-13T02:23:42.914Z,13.37
2023-02-13T02:27:21.234Z,11.70
2023-02-13T02:31:20.418Z,12.27
2023-02-13T02:34:38.602Z,12.93
2023-02-13T02:38:10.181Z,11.90
2023-02-13T02:41:41.261Z,13.17
2023-02-13T02:44:56.038Z,12.17
2023-02-13T02:48:27.835Z,12.03
2023-02-13T02:51:42.563Z,10.93
2023-02-13T02:55:08.286Z,12.43
2023-02-13T02:58:39.938Z,12.13
2023-02-13T03:02:03.609Z,11.27
2023-02-13T03:05:39.531Z,12.43
2023-02-13T03:09:11.150Z,11.23
2023-02-13T03:12:38.471Z,11.73
2023-02-13T03:16:00.217Z,11.37
2023-02-13T03:19:21.718Z,12.07
2023-02-13T03:22:39.431Z,12.53
2023-02-13T03:26:46.276Z,12.30
2023-02-13T03:30:11.866Z,11.73
2023-02-13T03:33:38.984Z,12.47
2023-02-13T03:37:09.998Z,13.00
2023-02-13T03:40:22.717Z,13.43
2023-02-13T03:43:34.155Z,13.20
2023-02-13T03:46:43.662Z,13.43
2023-02-13T03:50:06.526Z,12.17
2023-02-13T03:53:14.664Z,12.30
2023-02-13T03:56:40.768Z,13.03
2023-02-13T03:59:46.303Z,12.20
2023-02-13T04:03:05.180Z,12.80
2023-02-13T04:06:15.456Z,12.43
2023-02-13T04:09:19.625Z,12.23
2023-02-13T04:12:34.512Z,13.03
2023-02-13T04:15:45.694Z,13.70
2023-02-13T04:18:53.649Z,14.60
2023-02-13T04:22:01.021Z,13.57
2023-02-13T04:25:04.839Z,14.23
2023-02-13T04:28:08.824Z,13.93
2023-02-13T04:31:14.610Z,13.47
2023-02-13T04:34:18.679Z,13.27
2023-02-13T04:37:22.429Z,13.67
2023-02-13T04:40:26.313Z,15.83
2023-02-13T04:43:30.118Z,14.47
2023-02-13T04:46:35.473Z,14.53
2023-02-13T04:49:39.301Z,15.40
2023-02-13T04:52:43.143Z,14.20
2023-02-13T04:55:46.930Z,17.03
2023-02-13T04:58:50.753Z,15.03
2023-02-13T05:01:55.980Z,15.73
2023-02-13T05:04:59.805Z,15.17
2023-02-13T05:08:04.361Z,16.57
2023-02-13T05:11:08.535Z,16.70
2023-02-13T05:14:12.931Z,15.37
2023-02-13T05:17:18.121Z,15.90
2023-02-13T05:20:22.304Z,17.77
2023-02-13T05:23:25.599Z,16.80
2023-02-13T05:26:29.405Z,17.20
2023-02-13T05:29:33.214Z,16.43
2023-02-13T05:32:38.556Z,17.67
2023-02-13T05:35:42.283Z,16.30
2023-02-13T05:38:46.194Z,16.33
2023-02-13T05:41:51.173Z,16.80
2023-02-13T05:44:55.091Z,15.37
2023-02-13T05:48:00.239Z,16.07
2023-02-13T05:51:04.188Z,16.37
2023-02-13T05:54:08.028Z,16.80
2023-02-13T05:57:11.936Z,16.63
2023-02-13T06:00:17.799Z,17.83
2023-02-13T06:03:23.053Z,18.03
2023-02-13T06:06:26.856Z,18.03
2023-02-13T06:09:30.837Z,18.40
2023-02-13T06:12:34.635Z,18.87
2023-02-13T06:15:38.418Z,20.13
2023-02-13T06:18:43.652Z,20.10
2023-02-13T06:21:47.509Z,20.10
2023-02-13T06:24:51.232Z,20.37
2023-02-13T06:27:54.970Z,18.80
2023-02-13T06:30:59.297Z,18.13
2023-02-13T06:34:05.339Z,18.43
2023-02-13T06:37:09.067Z,18.87
2023-02-13T06:40:15.087Z,19.43
2023-02-13T06:43:19.441Z,19.93
2023-02-13T06:46:23.301Z,19.40
2023-02-13T06:49:28.506Z,19.27
2023-02-13T06:52:32.217Z,19.00
2023-02-13T06:55:36.759Z,19.50
2023-02-13T06:58:40.525Z,20.20
2023-02-13T07:01:44.317Z,18.93
2023-02-13T07:04:49.505Z,19.27
2023-02-13T07:07:53.247Z,19.67
2023-02-13T07:10:57.279Z,19.90
2023-02-13T07:14:01.413Z,19.43
2023-02-13T07:17:05.321Z,22.10
2023-02-13T07:20:12.625Z,21.60
2023-02-13T07:23:16.419Z,20.17
2023-02-13T07:26:20.274Z,20.23
2023-02-13T07:29:24.130Z,19.33
2023-02-13T07:32:28.295Z,21.00
2023-02-13T07:35:36.036Z,22.43
2023-02-13T07:38:39.847Z,21.27
2023-02-13T07:41:43.720Z,21.60
2023-02-13T07:44:47.580Z,23.40
2023-02-13T07:47:51.517Z,24.07
2023-02-13T07:51:01.117Z,23.43
2023-02-13T07:54:05.824Z,23.90
2023-02-13T07:57:09.927Z,24.23
2023-02-13T08:00:15.603Z,22.17
2023-02-13T08:03:19.509Z,22.53
2023-02-13T08:06:25.306Z,22.83
2023-02-13T08:09:54.166Z,23.27
2023-02-13T08:13:00.722Z,22.67
2023-02-13T08:16:05.792Z,20.53
2023-02-13T08:19:14.089Z,20.07
2023-02-13T08:22:39.184Z,24.23
2023-02-13T08:25:43.194Z,20.53
2023-02-13T08:28:46.996Z,21.60
2023-02-13T08:31:57.618Z,21.37
2023-02-13T08:35:01.534Z,22.57
2023-02-13T08:38:07.009Z,20.97
2023-02-13T08:41:10.813Z,21.77
2023-02-13T08:44:14.803Z,20.27
2023-02-13T08:47:18.638Z,19.80
2023-02-13T08:50:22.384Z,19.20
2023-02-13T08:53:27.595Z,19.87
2023-02-13T08:56:31.441Z,20.50
2023-02-13T08:59:35.248Z,21.10
2023-02-13T09:02:39.147Z,21.13
2023-02-13T09:05:43.495Z,22.17
2023-02-13T09:08:48.729Z,23.43
2023-02-13T09:11:54.054Z,22.97
2023-02-13T09:14:57.844Z,22.87
2023-02-13T09:18:01.722Z,23.00
2023-02-13T09:21:09.509Z,21.87
2023-02-13T09:24:14.836Z,26.30
2023-02-13T09:27:18.564Z,25.80
2023-02-13T09:30:28.721Z,24.83
2023-02-13T09:33:33.652Z,24.83
2023-02-13T09:36:37.569Z,23.40
2023-02-13T09:39:42.652Z,25.07
2023-02-13T09:42:48.856Z,26.23
2023-02-13T09:45:58.852Z,25.23
2023-02-13T09:49:15.036Z,23.47
2023-02-13T09:52:19.056Z,24.57
2023-02-13T09:55:31.380Z,25.23
2023-02-13T09:58:45.991Z,25.67
2023-02-13T10:03:11.499Z,25.00
2023-02-13T10:06:37.270Z,25.80
2023-02-13T10:09:54.695Z,26.23
2023-02-13T10:13:26.061Z,24.67
2023-02-13T10:16:37.115Z,25.83
2023-02-13T10:19:48.123Z,24.93
2023-02-13T10:23:00.571Z,24.13
2023-02-13T10:26:09.996Z,23.97
2023-02-13T10:29:41.405Z,22.27
2023-02-13T10:33:11.360Z,21.80
2023-02-13T10:36:25.501Z,20.57
2023-02-13T10:39:32.940Z,19.00
2023-02-13T10:42:46.432Z,18.27
2023-02-13T10:46:26.164Z,17.10
2023-02-13T10:49:51.513Z,17.60
2023-02-13T10:53:13.194Z,17.93
2023-02-13T10:56:33.532Z,17.87
2023-02-13T10:59:55.942Z,16.97
2023-02-13T11:03:02.099Z,15.87
2023-02-13T11:06:14.647Z,15.67
2023-02-13T11:09:19.956Z,14.80
2023-02-13T11:12:29.971Z,14.33
2023-02-13T11:15:35.092Z,15.30
2023-02-13T11:18:45.098Z,15.20
2023-02-13T11:21:56.542Z,14.60
2023-02-13T11:25:05.159Z,13.93
2023-02-13T11:28:17.810Z,15.03
2023-02-13T11:31:28.192Z,13.83
2023-02-13T11:34:35.742Z,14.43
2023-02-13T11:37:40.359Z,13.80
2023-02-13T11:40:47.716Z,13.33
2023-02-13T11:44:01.133Z,13.73
2023-02-13T11:47:05.237Z,12.80
2023-02-13T11:50:27.225Z,12.83
2023-02-13T11:53:37.291Z,13.53
2023-02-13T11:57:04.140Z,13.20
2023-02-13T12:00:40.222Z,12.80
2023-02-13T12:03:44.156Z,13.10
2023-02-13T12:07:05.398Z,12.27
2023-02-13T12:10:22.675Z,12.70
2023-02-13T12:13:34.154Z,12.63
2023-02-13T12:16:43.663Z,13.20
2023-02-13T12:19:50.768Z,13.47
2023-02-13T12:23:08.988Z,13.13
2023-02-13T12:26:30.646Z,12.80
2023-02-13T12:30:05.156Z,12.30
2023-02-13T12:33:25.237Z,13.90
2023-02-13T12:36:39.627Z,13.67
2023-02-13T12:40:04.035Z,12.97
2023-02-13T12:43:53.295Z,13.10
2023-02-13T12:47:17.184Z,13.00
2023-02-13T12:50:58.691Z,13.10
2023-02-13T12:54:25.846Z,13.33
2023-02-13T12:57:48.719Z,12.90
2023-02-13T13:01:04.832Z,13.43
2023-02-13T13:04:22.513Z,13.40
2023-02-13T13:08:02.097Z,13.67
2023-02-13T13:11:29.137Z,13.90
2023-02-13T13:14:47.809Z,13.20
2023-02-13T13:18:05.520Z,13.33
2023-02-13T13:21:34.334Z,13.03
2023-02-13T13:24:57.150Z,13.00
2023-02-13T13:28:09.280Z,13.30
2023-02-13T13:31:16.583Z,11.73
2023-02-13T13:34:25.830Z,13.80
2023-02-13T13:37:38.413Z,12.87
2023-02-13T13:40:52.843Z,12.53
2023-02-13T13:44:26.541Z,13.37
2023-02-13T13:48:01.820Z,13.20
2023-02-13T13:51:09.192Z,12.57
2023-02-13T13:54:25.291Z,13.10
2023-02-13T13:58:07.460Z,15.87
2023-02-13T14:01:30.886Z,15.67
2023-02-13T14:04:43.739Z,13.40
2023-02-13T14:07:50.986Z,13.07
2023-02-13T14:11:06.217Z,13.17
2023-02-13T14:14:55.784Z,12.77
2023-02-13T14:18:02.246Z,20.13
2023-02-13T14:21:08.440Z,18.20
2023-02-13T14:24:13.819Z,13.93
2023-02-13T14:27:25.058Z,13.37
2023-02-13T14:30:34.236Z,14.20
2023-02-13T14:33:38.108Z,14.40
2023-02-13T14:36:47.940Z,14.20
2023-02-13T14:40:33.588Z,13.53
2023-02-13T14:43:47.600Z,13.93
2023-02-13T14:46:54.296Z,13.87
2023-02-13T14:50:00.894Z,13.37
2023-02-13T14:53:18.801Z,13.10
2023-02-13T14:56:24.565Z,14.63
2023-02-13T14:59:35.384Z,16.03
2023-02-13T15:02:47.719Z,14.43
2023-02-13T15:05:55.633Z,14.53
2023-02-13T15:09:06.044Z,14.07
2023-02-13T15:12:30.243Z,14.00
2023-02-13T15:15:38.062Z,14.73
2023-02-13T15:18:46.740Z,15.07
2023-02-13T15:21:58.294Z,15.57
2023-02-13T15:25:04.454Z,15.00
2023-02-13T15:28:20.023Z,14.67
2023-02-13T15:31:26.311Z,15.60
2023-02-13T15:34:34.458Z,17.27
2023-02-13T15:37:38.265Z,16.13
2023-02-13T15:40:45.297Z,15.47
2023-02-13T15:43:54.611Z,14.23
2023-02-13T15:47:07.429Z,15.17
2023-02-13T15:50:23.076Z,16.43
2023-02-13T15:53:26.908Z,15.23
2023-02-13T15:56:33.174Z,16.33
2023-02-13T15:59:40.374Z,16.53
2023-02-13T16:02:48.917Z,17.93
2023-02-13T16:05:53.193Z,16.83
2023-02-13T16:08:59.007Z,15.90
2023-02-13T16:12:08.440Z,15.13
2023-02-13T16:15:33.384Z,15.60
2023-02-13T16:18:37.299Z,16.73
2023-02-13T16:21:41.214Z,16.60
2023-02-13T16:24:52.107Z,16.03
2023-02-13T16:28:01.043Z,16.73
2023-02-13T16:31:07.390Z,17.27
2023-02-13T16:34:26.811Z,17.43
2023-02-13T16:37:33.473Z,17.77
2023-02-13T16:40:46.518Z,16.40
2023-02-13T16:43:53.050Z,16.43
2023-02-13T16:47:01.546Z,16.00
2023-02-13T16:50:06.268Z,17.27
2023-02-13T16:53:10.434Z,17.93
2023-02-13T16:56:14.552Z,17.07
2023-02-13T16:59:43.345Z,17.13
2023-02-13T17:02:49.309Z,16.50
2023-02-13T17:05:53.076Z,18.73
2023-02-13T17:08:56.978Z,18.03
2023-02-13T17:12:00.734Z,20.23
2023-02-13T17:15:13.195Z,18.67
2023-02-13T17:18:17.302Z,20.23
2023-02-13T17:21:21.076Z,19.57
2023-02-13T17:24:24.900Z,20.30
2023-02-13T17:27:29.385Z,19.43
2023-02-13T17:30:35.418Z,20.23
2023-02-13T17:33:41.312Z,18.67
2023-02-13T17:36:45.123Z,18.23
2023-02-13T17:39:50.289Z,17.73
2023-02-13T17:42:56.518Z,19.47
2023-02-13T17:46:01.753Z,21.90
2023-02-13T17:49:05.764Z,19.47
2023-02-13T17:52:12.375Z,30.70
2023-02-13T17:55:21.279Z,26.87
2023-02-13T17:58:25.686Z,20.37
2023-02-13T18:01:30.959Z,19.63
2023-02-13T18:04:34.811Z,18.00
2023-02-13T18:07:39.581Z,18.80
2023-02-13T18:10:43.585Z,19.93
2023-02-13T18:13:48.575Z,21.17
2023-02-13T18:16:53.773Z,22.93
2023-02-13T18:19:58.120Z,20.83
2023-02-13T18:23:02.316Z,28.57
2023-02-13T18:26:09.205Z,24.00
2023-02-13T18:29:12.943Z,23.43
2023-02-13T18:32:18.509Z,21.30
2023-02-13T18:35:23.801Z,21.70
2023-02-13T18:38:27.755Z,21.10
2023-02-13T18:41:31.582Z,24.47
2023-02-13T18:44:35.916Z,20.57
2023-02-13T18:47:41.406Z,21.87
2023-02-13T18:50:45.336Z,20.43
2023-02-13T18:53:50.555Z,21.43
2023-02-13T18:56:54.409Z,21.67
2023-02-13T18:59:58.163Z,22.53
2023-02-13T19:03:03.331Z,20.33
2023-02-13T19:06:10.301Z,22.30
2023-02-13T19:09:14.524Z,23.17
2023-02-13T19:12:18.362Z,24.90
2023-02-13T19:15:31.346Z,23.80
2023-02-13T19:18:40.188Z,23.37
2023-02-13T19:21:44.071Z,24.47
2023-02-13T19:24:47.791Z,24.70
2023-02-13T19:27:51.556Z,23.83
2023-02-13T19:30:55.312Z,23.03
2023-02-13T19:34:00.920Z,25.67
2023-02-13T19:37:04.656Z,23.17
2023-02-13T19:40:10.020Z,23.87
2023-02-13T19:43:13.803Z,23.10
2023-02-13T19:46:19.096Z,24.07
2023-02-13T19:49:32.480Z,24.67
2023-02-13T19:52:37.264Z,22.97
2023-02-13T19:55:41.013Z,25.53
2023-02-13T19:58:45.193Z,26.33
2023-02-13T20:01:59.183Z,26.03
2023-02-13T20:05:13.081Z,28.17
2023-02-13T20:08:43.045Z,27.43
2023-02-13T20:11:55.754Z,26.47
2023-02-13T20:15:00.364Z,27.27
2023-02-13T20:18:10.156Z,27.63
2023-02-13T20:21:20.301Z,26.57
2023-02-13T20:24:24.038Z,24.90
2023-02-13T20:27:27.842Z,25.80
2023-02-13T20:30:31.986Z,25.87
2023-02-13T20:33:45.194Z,24.03
2023-02-13T20:36:51.725Z,25.57
2023-02-13T20:40:00.515Z,25.67
2023-02-13T20:43:04.321Z,27.93
2023-02-13T20:46:09.020Z,27.07
2023-02-13T20:49:18.927Z,25.67
2023-02-13T20:52:24.106Z,26.00
2023-02-13T20:55:28.059Z,27.40
2023-02-13T20:58:32.831Z,29.33
2023-02-13T21:01:45.238Z,29.40
2023-02-13T21:04:52.491Z,28.50
2023-02-13T21:07:58.378Z,27.43
2023-02-13T21:11:03.123Z,28.30
2023-02-13T21:14:07.815Z,27.13
2023-02-13T21:17:11.781Z,25.80
2023-02-13T21:20:15.654Z,25.30
2023-02-13T21:23:48.602Z,26.80
2023-02-13T21:27:48.804Z,24.73
2023-02-13T21:32:00.320Z,24.33
2023-02-13T21:35:52.413Z,24.23
2023-02-13T21:40:04.319Z,25.13
2023-02-13T21:44:00.166Z,23.37
2023-02-13T21:48:01.128Z,24.87
2023-02-13T21:52:06.897Z,25.63
2023-02-13T21:56:19.060Z,24.20
2023-02-13T22:00:20.061Z,26.70
2023-02-13T22:04:27.255Z,24.87
2023-02-13T22:08:16.966Z,24.57
2023-02-13T22:12:21.584Z,25.00
2023-02-13T22:16:33.757Z,25.20
2023-02-13T22:20:45.643Z,25.93
2023-02-13T22:24:42.965Z,28.40
2023-02-13T22:28:57.742Z,26.23
2023-02-13T22:32:52.680Z,26.33
2023-02-13T22:36:48.179Z,26.17
2023-02-13T22:40:53.316Z,25.47
2023-02-13T22:44:59.590Z,25.33
2023-02-13T22:48:51.898Z,23.80
2023-02-13T22:52:05.649Z,22.37
2023-02-13T22:55:10.170Z,22.87
2023-02-13T22:58:15.212Z,24.17
2023-02-13T23:01:23.057Z,26.07
2023-02-13T23:04:26.946Z,25.97
2023-02-13T23:07:31.056Z,22.90
2023-02-13T23:10:34.988Z,20.33
2023-02-13T23:13:37.810Z,19.70
2023-02-13T23:17:01.994Z,17.53
2023-02-13T23:20:07.415Z,19.23
2023-02-13T23:23:12.376Z,19.17
2023-02-13T23:26:16.493Z,19.87
2023-02-13T23:29:20.287Z,20.17
2023-02-13T23:32:25.729Z,22.23
2023-02-13T23:35:29.750Z,20.87
2023-02-13T23:38:33.591Z,24.43
2023-02-13T23:41:37.414Z,23.60
2023-02-13T23:44:41.226Z,23.93
2023-02-13T23:47:46.564Z,22.50
2023-02-13T23:50:53.229Z,22.07
2023-02-13T23:53:57.535Z,23.60
2023-02-13T23:57:01.425Z,21.87
